Time;durP1;ratioP1;P1;durP2;ratioP2;P2;SDS_P1;SDS_P2;PMS_P1;PMS_P2;Temp;Humidity;BMP_temperature;BMP_pressure;BME280_temperature;BME280_humidity;BME280_pressure;Samples;Min_cycle;Max_cycle;Signal;HPM_P1;HPM_P2
2023/02/18 00:02:25;;;;;;;1.20;1.10;;;;;;;11.90;60.39;98028.91;6331156;27;20228;-35
2023/02/18 00:05:28;;;;;;;2.10;1.23;;;;;;;11.95;59.57;98026.31;6329442;27;20243;-35
2023/02/18 00:08:30;;;;;;;1.63;1.00;;;;;;;12.01;59.07;98036.03;6353964;27;20231;-35
2023/02/18 00:11:35;;;;;;;2.73;0.87;;;;;;;11.87;59.41;98033.69;6354391;27;20711;-35
2023/02/18 00:14:37;;;;;;;1.10;0.80;;;;;;;11.87;59.23;98012.34;6342070;27;20273;-35
2023/02/18 00:17:39;;;;;;;1.27;0.90;;;;;;;12.03;58.95;98031.28;6344972;27;20610;-35
2023/02/18 00:20:41;;;;;;;1.03;0.63;;;;;;;11.98;58.91;98029.31;6344101;27;20317;-35
2023/02/18 00:23:43;;;;;;;1.30;0.80;;;;;;;11.98;59.35;98058.69;6337769;27;20232;-35
2023/02/18 00:26:50;;;;;;;1.43;0.77;;;;;;;12.09;58.88;98030.28;6353881;27;20228;-35
2023/02/18 00:29:52;;;;;;;2.10;0.90;;;;;;;12.08;59.11;98040.16;6344282;27;20242;-35
2023/02/18 00:32:54;;;;;;;1.27;0.77;;;;;;;12.27;58.57;98053.28;6334481;27;20240;-35
2023/02/18 00:36:04;;;;;;;0.90;0.80;;;;;;;12.27;58.26;98037.25;6351772;27;20626;-35
2023/02/18 00:39:08;;;;;;;0.60;0.60;;;;;;;12.20;58.99;98045.41;6315941;28;20594;-35
2023/02/18 00:42:10;;;;;;;1.00;0.90;;;;;;;12.06;59.06;98050.25;6342671;27;20583;-35
2023/02/18 00:45:13;;;;;;;1.10;0.87;;;;;;;12.12;59.12;98048.50;6344726;27;20273;-35
2023/02/18 00:48:15;;;;;;;1.60;1.03;;;;;;;12.19;58.74;98073.19;6353083;27;20208;-35
2023/02/18 00:51:17;;;;;;;1.13;0.90;;;;;;;12.21;59.03;98038.22;6353024;27;20201;-35
2023/02/18 00:54:21;;;;;;;1.10;1.00;;;;;;;12.28;59.31;98053.03;6349411;27;20225;-35
2023/02/18 00:57:24;;;;;;;1.00;0.90;;;;;;;12.21;59.68;98054.25;6304485;27;20597;-35
2023/02/18 01:00:26;;;;;;;2.57;0.90;;;;;;;12.19;59.24;98041.13;6335312;27;20622;-35
2023/02/18 01:03:28;;;;;;;1.70;1.00;;;;;;;12.09;59.34;98035.63;6352600;27;20224;-35
2023/02/18 01:06:31;;;;;;;1.87;0.93;;;;;;;12.23;59.78;98073.53;6334736;27;20224;-35
2023/02/18 01:09:33;;;;;;;2.73;1.20;;;;;;;12.26;59.17;98046.31;6351884;27;20913;-35
2023/02/18 01:12:35;;;;;;;1.33;1.00;;;;;;;12.14;59.71;98039.19;6323373;28;20229;-36
2023/02/18 01:15:38;;;;;;;1.13;0.97;;;;;;;12.20;59.41;98063.31;6330514;27;20818;-35
2023/02/18 01:18:40;;;;;;;3.40;1.07;;;;;;;12.28;59.30;98049.56;6316503;27;20604;-35
2023/02/18 01:21:42;;;;;;;2.93;0.90;;;;;;;12.14;59.66;98055.22;6351685;27;20855;-35
2023/02/18 01:24:44;;;;;;;2.93;1.00;;;;;;;12.25;59.76;98050.03;6325854;28;20233;-35
2023/02/18 01:27:47;;;;;;;2.00;0.80;;;;;;;12.24;59.86;98059.09;6352484;27;20307;-35
2023/02/18 01:30:49;;;;;;;2.97;1.10;;;;;;;12.13;60.12;98052.78;6331958;27;20241;-35
2023/02/18 01:33:52;;;;;;;1.47;0.90;;;;;;;11.97;59.72;98017.03;6329326;27;20719;-35
2023/02/18 01:36:55;;;;;;;1.40;1.30;;;;;;;12.05;59.91;98045.97;6342282;27;20790;-35
2023/02/18 01:39:57;;;;;;;0.97;0.90;;;;;;;12.20;59.36;98031.25;6337984;27;20593;-36
2023/02/18 01:42:59;;;;;;;2.10;1.10;;;;;;;12.32;59.26;98038.16;6316963;27;20231;-35
2023/02/18 01:46:15;;;;;;;1.20;1.10;;;;;;;12.29;59.59;98040.50;6330734;27;20817;-35
2023/02/18 01:49:26;;;;;;;1.70;1.30;;;;;;;12.22;59.57;98042.53;6312210;28;20227;-35
2023/02/18 01:52:31;;;;;;;1.47;1.23;;;;;;;12.30;59.68;98039.44;6352384;28;20779;-35
2023/02/18 01:55:35;;;;;;;1.63;1.37;;;;;;;12.34;59.34;98067.28;6333247;28;20295;-36
2023/02/18 01:58:40;;;;;;;1.70;1.10;;;;;;;12.31;59.48;98039.19;6333622;28;20236;-35
2023/02/18 02:01:44;;;;;;;2.63;1.20;;;;;;;12.32;59.73;98056.03;6333376;28;20236;-35
2023/02/18 02:04:48;;;;;;;1.73;1.20;;;;;;;12.22;60.07;98045.19;6336163;28;20233;-35
2023/02/18 02:07:53;;;;;;;2.37;1.27;;;;;;;12.19;60.01;98046.47;6341746;28;20381;-35
2023/02/18 02:11:11;;;;;;;2.20;1.67;;;;;;;12.16;60.00;98046.94;6338750;28;20323;-35
2023/02/18 02:14:31;;;;;;;1.30;1.20;;;;;;;11.96;60.10;98020.72;6338105;28;20240;-35
2023/02/18 02:17:45;;;;;;;1.40;1.20;;;;;;;12.17;59.68;98037.06;6337853;27;20241;-35
2023/02/18 02:20:47;;;;;;;1.10;1.00;;;;;;;12.15;60.01;98050.69;6350361;27;20692;-35
2023/02/18 02:23:52;;;;;;;2.37;1.10;;;;;;;12.14;59.88;98047.19;6336979;27;20785;-35
2023/02/18 02:27:07;;;;;;;2.93;1.17;;;;;;;12.19;59.43;98051.81;6338906;27;20726;-35
2023/02/18 02:30:18;;;;;;;2.60;1.30;;;;;;;12.18;60.06;98036.03;6340811;27;20245;-35
2023/02/18 02:33:41;;;;;;;1.40;1.20;;;;;;;11.96;60.33;98012.72;6354862;27;20215;-35
2023/02/18 02:36:57;;;;;;;1.60;1.50;;;;;;;12.13;60.12;98050.13;6331657;27;20699;-35
2023/02/18 02:40:23;;;;;;;1.93;1.10;;;;;;;11.80;60.53;97992.94;6310770;28;20237;-35
2023/02/18 02:43:38;;;;;;;1.43;1.10;;;;;;;12.08;60.35;98036.69;6312735;28;20257;-35
2023/02/18 02:46:44;;;;;;;1.40;1.30;;;;;;;12.06;60.76;98052.94;6354657;27;20260;-35
2023/02/18 02:49:59;;;;;;;3.50;1.23;;;;;;;12.05;60.82;98043.31;6340812;27;20224;-35
2023/02/18 02:53:07;;;;;;;2.23;1.53;;;;;;;12.11;60.44;98039.66;6349131;27;20221;-35
2023/02/18 02:56:18;;;;;;;1.37;1.20;;;;;;;12.06;60.81;98062.81;6341392;27;20314;-35
2023/02/18 02:59:25;;;;;;;2.47;1.57;;;;;;;12.00;60.67;98042.41;6351206;27;20425;-35
2023/02/18 03:02:46;;;;;;;1.90;1.27;;;;;;;12.13;60.29;98050.94;6332308;27;20243;-35
2023/02/18 03:05:59;;;;;;;1.50;1.33;;;;;;;11.81;60.15;97994.56;6326317;28;20310;-35
2023/02/18 03:09:30;;;;;;;2.07;1.10;;;;;;;12.13;60.09;98047.44;6320600;27;20229;-35
2023/02/18 03:12:48;;;;;;;1.27;1.10;;;;;;;11.74;60.64;98015.28;6348408;27;20235;-36
2023/02/18 03:16:28;;;;;;;1.23;1.10;;;;;;;12.06;60.45;98042.25;6320105;27;20238;-35
2023/02/18 03:19:36;;;;;;;1.20;1.10;;;;;;;12.05;60.69;98032.63;6324647;27;20727;-35
2023/02/18 03:22:47;;;;;;;2.27;1.40;;;;;;;12.02;60.71;98042.97;6336490;27;20775;-35
2023/02/18 03:25:51;;;;;;;1.80;1.00;;;;;;;11.99;60.54;98030.94;6349653;27;20221;-35
2023/02/18 03:28:58;;;;;;;1.20;1.10;;;;;;;11.83;60.79;98043.22;6335958;27;20225;-35
2023/02/18 03:32:06;;;;;;;3.53;1.20;;;;;;;11.88;60.63;98035.31;6320402;28;20372;-35
2023/02/18 03:35:14;;;;;;;1.60;1.07;;;;;;;11.91;60.14;98035.84;6303358;28;20236;-35
2023/02/18 03:38:41;;;;;;;1.63;1.53;;;;;;;11.80;60.86;98050.88;6333360;27;20311;-35
2023/02/18 03:41:45;;;;;;;1.33;1.07;;;;;;;11.70;61.05;98019.47;6335607;27;20233;-35
2023/02/18 03:44:47;;;;;;;1.40;0.97;;;;;;;11.76;60.66;98037.19;6324569;27;20228;-35
2023/02/18 03:47:49;;;;;;;1.20;1.00;;;;;;;11.73;60.78;98021.66;6320601;28;20711;-35
2023/02/18 03:50:51;;;;;;;1.73;0.90;;;;;;;11.58;61.15;97989.38;6342423;27;20224;-35
2023/02/18 03:53:53;;;;;;;1.07;0.97;;;;;;;11.60;61.25;98025.44;6335780;27;20232;-35
2023/02/18 03:56:55;;;;;;;1.90;1.00;;;;;;;11.63;61.00;98016.16;6354753;27;20232;-35
2023/02/18 03:59:57;;;;;;;1.27;0.80;;;;;;;11.60;61.17;98019.28;6354122;27;20273;-35
2023/02/18 04:02:59;;;;;;;1.67;0.90;;;;;;;11.61;60.85;98020.91;6354136;27;20238;-35
2023/02/18 04:06:01;;;;;;;2.03;1.00;;;;;;;11.57;61.44;98023.22;6331971;27;20233;-35
2023/02/18 04:09:07;;;;;;;1.37;1.00;;;;;;;11.60;61.29;98025.44;6348924;27;20224;-35
2023/02/18 04:12:10;;;;;;;1.07;0.90;;;;;;;11.37;61.79;98021.00;6353616;27;20213;-35
2023/02/18 04:15:12;;;;;;;0.93;0.83;;;;;;;11.51;61.44;98018.06;6337362;27;20213;-35
2023/02/18 04:18:15;;;;;;;1.20;0.90;;;;;;;11.42;61.74;98038.16;6339302;27;20391;-35
2023/02/18 04:21:17;;;;;;;2.77;1.07;;;;;;;11.33;62.19;98019.06;6329753;27;20217;-35
2023/02/18 04:24:19;;;;;;;1.00;0.80;;;;;;;11.37;62.57;98033.53;6314545;27;20208;-35
2023/02/18 04:27:20;;;;;;;1.10;0.80;;;;;;;11.16;62.65;98016.34;6345244;27;20329;-35
2023/02/18 04:30:22;;;;;;;1.27;0.93;;;;;;;11.42;62.12;98035.47;6319486;28;20225;-35
2023/02/18 04:33:25;;;;;;;0.73;0.73;;;;;;;11.48;61.81;98038.03;6342445;27;20223;-35
2023/02/18 04:36:27;;;;;;;2.57;0.87;;;;;;;11.09;61.98;98021.81;6347220;27;20238;-35
2023/02/18 04:39:29;;;;;;;0.73;0.73;;;;;;;11.48;61.60;98032.69;6340171;27;20227;-35
2023/02/18 04:42:31;;;;;;;1.53;1.00;;;;;;;11.39;61.71;98028.78;6346270;27;20223;-35
2023/02/18 04:45:33;;;;;;;2.87;1.07;;;;;;;11.36;61.81;98071.94;6352716;27;20701;-35
2023/02/18 04:48:35;;;;;;;1.13;0.83;;;;;;;11.44;62.23;98060.88;6353626;27;20710;-36
2023/02/18 04:51:37;;;;;;;1.70;0.90;;;;;;;11.49;61.67;98057.50;6334354;27;20228;-35
2023/02/18 04:54:39;;;;;;;1.37;1.20;;;;;;;11.54;61.50;98063.75;6351954;27;20301;-35
2023/02/18 04:57:41;;;;;;;1.30;1.00;;;;;;;11.48;61.27;98054.03;6331510;27;20232;-35
2023/02/18 05:00:43;;;;;;;1.50;1.10;;;;;;;11.48;61.89;98075.38;6349001;27;20228;-35
2023/02/18 05:03:45;;;;;;;1.70;1.00;;;;;;;11.53;61.76;98075.47;6352669;27;20575;-35
2023/02/18 05:06:47;;;;;;;2.63;1.07;;;;;;;11.44;61.74;98068.09;6352596;27;20235;-35
2023/02/18 05:09:49;;;;;;;2.23;1.03;;;;;;;11.37;61.61;98041.53;6352888;27;20228;-35
2023/02/18 05:12:51;;;;;;;1.70;0.80;;;;;;;11.49;61.90;98095.66;6348762;27;20596;-35
2023/02/18 05:15:53;;;;;;;1.07;0.97;;;;;;;11.58;61.22;98072.91;6330334;27;20220;-35
2023/02/18 05:18:56;;;;;;;1.10;0.97;;;;;;;11.55;61.68;98077.91;6336455;27;20364;-35
2023/02/18 05:21:58;;;;;;;0.80;0.73;;;;;;;11.57;61.50;98084.59;6302013;28;20237;-35
2023/02/18 05:24:59;;;;;;;0.70;0.70;;;;;;;11.55;61.86;98091.25;6325982;27;20241;-35
2023/02/18 05:28:02;;;;;;;1.97;1.00;;;;;;;11.62;61.50;98084.72;6344765;27;20695;-35
2023/02/18 05:31:04;;;;;;;0.70;0.70;;;;;;;11.54;61.48;98079.75;6332559;27;20237;-35
2023/02/18 05:34:06;;;;;;;1.20;0.97;;;;;;;11.59;61.56;98079.84;6335542;27;20703;-35
2023/02/18 05:37:08;;;;;;;0.67;0.60;;;;;;;11.52;61.44;98073.03;6347332;27;20592;-35
2023/02/18 05:40:11;;;;;;;1.33;0.87;;;;;;;11.70;60.99;98096.06;6331283;28;20244;-35
2023/02/18 05:43:13;;;;;;;1.30;1.00;;;;;;;11.69;61.32;98103.25;6351247;27;20231;-35
2023/02/18 05:46:15;;;;;;;0.70;0.70;;;;;;;11.54;61.22;98077.09;6352834;27;20773;-35
2023/02/18 05:49:17;;;;;;;1.17;0.83;;;;;;;11.68;61.94;98108.84;6312301;27;20784;-35
2023/02/18 05:52:19;;;;;;;1.60;0.80;;;;;;;11.62;62.44;98102.56;6325040;28;20225;-35
2023/02/18 05:55:21;;;;;;;1.13;0.80;;;;;;;11.67;62.38;98125.88;6342299;28;20241;-35
2023/02/18 05:58:23;;;;;;;1.10;0.90;;;;;;;11.71;62.26;98108.34;6353410;28;20377;-35
2023/02/18 06:01:25;;;;;;;0.60;0.43;;;;;;;11.71;62.46;98105.69;6351443;28;20308;-35
2023/02/18 06:04:27;;;;;;;0.87;0.67;;;;;;;11.60;63.10;98124.16;6349188;28;20236;-35
2023/02/18 06:07:29;;;;;;;1.70;0.80;;;;;;;11.56;63.15;98109.66;6326964;28;20254;-35
2023/02/18 06:10:31;;;;;;;0.93;0.70;;;;;;;11.66;62.88;98118.91;6350849;28;20223;-35
2023/02/18 06:13:33;;;;;;;1.03;0.83;;;;;;;11.58;62.94;98099.59;6349078;28;20232;-35
2023/02/18 06:16:35;;;;;;;1.10;0.70;;;;;;;11.62;62.69;98118.59;6329995;28;20232;-35
2023/02/18 06:19:37;;;;;;;1.13;0.70;;;;;;;11.61;63.04;98101.75;6335311;28;20604;-36
2023/02/18 06:22:39;;;;;;;0.93;0.63;;;;;;;11.67;63.03;98117.88;6328229;28;20633;-36
2023/02/18 06:25:41;;;;;;;0.77;0.77;;;;;;;11.64;63.21;98119.16;6335592;28;20230;-35
2023/02/18 06:28:43;;;;;;;1.03;0.53;;;;;;;11.64;63.05;98119.16;6348501;28;20231;-35
2023/02/18 06:31:45;;;;;;;0.80;0.70;;;;;;;11.68;63.03;98124.84;6329184;28;20242;-36
2023/02/18 06:34:47;;;;;;;1.73;0.70;;;;;;;11.63;63.38;98126.38;6333971;28;20278;-35
2023/02/18 06:37:49;;;;;;;1.10;0.70;;;;;;;11.62;63.51;98116.75;6349897;28;20599;-35
2023/02/18 06:40:52;;;;;;;2.13;0.90;;;;;;;11.65;63.50;98117.31;6305140;28;20283;-35
2023/02/18 06:43:54;;;;;;;1.93;0.77;;;;;;;11.43;63.67;98072.63;6335466;28;20239;-35
2023/02/18 06:46:56;;;;;;;2.30;0.90;;;;;;;11.62;63.31;98108.75;6351357;28;20321;-35
2023/02/18 06:49:58;;;;;;;1.53;0.70;;;;;;;11.58;64.12;98112.94;6351103;28;20231;-35
2023/02/18 06:53:00;;;;;;;0.87;0.80;;;;;;;11.65;63.81;98110.09;6351188;28;20235;-35
2023/02/18 06:56:02;;;;;;;1.90;0.80;;;;;;;11.67;63.70;98108.00;6328781;28;20231;-35
2023/02/18 06:59:04;;;;;;;1.47;0.60;;;;;;;11.63;64.19;98113.03;6327208;28;20913;-35
2023/02/18 07:02:06;;;;;;;0.80;0.73;;;;;;;11.69;63.77;98105.91;6313109;28;20760;-35
2023/02/18 07:05:08;;;;;;;2.03;0.80;;;;;;;11.60;63.71;98116.16;6349460;27;20243;-35
2023/02/18 07:08:10;;;;;;;0.77;0.77;;;;;;;11.68;63.80;98117.66;6337679;27;20221;-35
2023/02/18 07:11:12;;;;;;;0.63;0.57;;;;;;;11.69;63.39;98118.47;6340685;27;20236;-35
2023/02/18 07:14:14;;;;;;;0.77;0.60;;;;;;;11.66;64.00;98114.38;6332195;27;20235;-35
2023/02/18 07:17:16;;;;;;;1.97;0.73;;;;;;;11.71;63.81;98113.69;6338582;27;20331;-35
2023/02/18 07:20:20;;;;;;;1.30;0.73;;;;;;;11.67;63.82;98144.56;6336343;27;20221;-35
2023/02/18 07:23:22;;;;;;;1.10;0.90;;;;;;;11.74;63.75;98126.56;6354876;27;20242;-35
2023/02/18 07:26:24;;;;;;;1.17;0.80;;;;;;;11.72;63.67;98116.09;6354670;27;20229;-35
2023/02/18 07:29:26;;;;;;;1.00;0.80;;;;;;;11.78;63.76;98120.50;6347122;27;20277;-35
2023/02/18 07:32:28;;;;;;;0.77;0.73;;;;;;;11.81;63.56;98124.53;6331820;27;20245;-35
2023/02/18 07:35:30;;;;;;;1.17;0.73;;;;;;;11.79;63.87;98113.31;6344599;27;20228;-35
2023/02/18 07:38:32;;;;;;;3.17;1.00;;;;;;;11.77;63.82;98126.06;6355428;27;20228;-35
2023/02/18 07:41:34;;;;;;;0.80;0.70;;;;;;;11.61;63.77;98091.09;6346057;27;20618;-35
2023/02/18 07:44:37;;;;;;;1.10;0.80;;;;;;;11.71;63.65;98119.03;6348618;27;20600;-35
2023/02/18 07:47:41;;;;;;;1.40;0.70;;;;;;;11.79;63.49;98111.44;6354065;27;20220;-35
2023/02/18 07:50:44;;;;;;;1.07;0.60;;;;;;;11.81;63.51;98128.03;6329593;28;20229;-35
2023/02/18 07:53:46;;;;;;;1.40;1.03;;;;;;;11.76;63.90;98124.44;6354313;27;20655;-35
2023/02/18 07:56:49;;;;;;;1.30;0.80;;;;;;;11.88;63.07;98110.06;6335219;27;20719;-35
2023/02/18 07:59:51;;;;;;;2.40;0.80;;;;;;;11.92;62.95;98126.41;6350815;27;20681;-35
2023/02/18 08:02:53;;;;;;;1.47;1.00;;;;;;;11.92;63.02;98121.06;6354403;27;20297;-35
2023/02/18 08:05:55;;;;;;;2.70;0.90;;;;;;;11.96;63.28;98122.19;6343457;27;20701;-35
2023/02/18 08:08:57;;;;;;;1.73;0.70;;;;;;;11.96;62.69;98134.72;6337056;27;20240;-35
2023/02/18 08:11:59;;;;;;;1.33;0.90;;;;;;;11.69;62.74;98089.09;6353691;27;20731;-35
2023/02/18 08:15:01;;;;;;;0.80;0.57;;;;;;;12.02;62.49;98129.25;6332976;27;20721;-35
2023/02/18 08:18:04;;;;;;;1.93;1.03;;;;;;;11.95;62.52;98123.25;6354545;27;20577;-35
2023/02/18 08:21:06;;;;;;;0.80;0.60;;;;;;;12.04;62.13;98127.16;6344613;27;20228;-35
2023/02/18 08:24:09;;;;;;;1.67;0.80;;;;;;;12.05;62.64;98130.63;6332320;27;20228;-35
2023/02/18 08:27:12;;;;;;;0.70;0.70;;;;;;;12.07;62.64;98126.69;6329861;27;20254;-35
2023/02/18 08:30:14;;;;;;;0.77;0.77;;;;;;;11.87;62.97;98135.13;6333934;27;20291;-35
2023/02/18 08:33:16;;;;;;;0.77;0.70;;;;;;;12.00;62.72;98147.38;6352185;27;20232;-35
2023/02/18 08:36:19;;;;;;;0.93;0.80;;;;;;;12.06;62.25;98122.38;6352691;27;20690;-35
2023/02/18 08:39:21;;;;;;;4.30;0.80;;;;;;;12.16;62.06;98115.59;6351824;27;20228;-35
2023/02/18 08:42:23;;;;;;;0.60;0.60;;;;;;;12.26;61.92;98115.75;6327378;28;20224;-35
2023/02/18 08:45:25;;;;;;;0.50;0.50;;;;;;;12.27;61.88;98112.88;6353562;27;20216;-35
2023/02/18 08:48:29;;;;;;;1.17;0.83;;;;;;;12.23;61.57;98127.75;6353782;27;20460;-35
2023/02/18 08:51:31;;;;;;;0.77;0.77;;;;;;;12.28;61.24;98100.31;6353563;27;20224;-35
2023/02/18 08:54:33;;;;;;;0.73;0.70;;;;;;;12.29;61.09;98139.31;6351213;27;20231;-35
2023/02/18 08:57:35;;;;;;;1.20;0.73;;;;;;;12.40;61.25;98117.06;6342282;27;20436;-35
2023/02/18 09:00:38;;;;;;;1.10;0.80;;;;;;;12.55;60.73;98103.94;6336581;27;20725;-35
2023/02/18 09:03:40;;;;;;;0.63;0.63;;;;;;;12.65;60.32;98109.44;6350201;27;20225;-35
2023/02/18 09:06:42;;;;;;;1.53;0.60;;;;;;;12.48;60.41;98081.94;6358691;27;20668;-36
2023/02/18 09:09:44;;;;;;;0.87;0.80;;;;;;;12.76;60.49;98120.28;6333427;27;20239;-35
2023/02/18 09:12:46;;;;;;;0.77;0.77;;;;;;;12.74;60.07;98122.41;6355602;27;20254;-35
2023/02/18 09:16:05;;;;;;;0.70;0.63;;;;;;;12.76;59.88;98107.75;6334812;27;20225;-35
2023/02/18 09:19:08;;;;;;;1.07;0.60;;;;;;;12.70;60.03;98127.41;6326802;28;20358;-35
2023/02/18 09:22:10;;;;;;;0.70;0.53;;;;;;;12.68;60.51;98124.19;6337719;27;20220;-35
2023/02/18 09:25:12;;;;;;;0.93;0.87;;;;;;;12.61;60.28;98100.31;6338677;27;20710;-35
2023/02/18 09:28:14;;;;;;;0.80;0.80;;;;;;;12.78;60.13;98088.78;6352298;27;20224;-35
2023/02/18 09:31:19;;;;;;;0.97;0.70;;;;;;;12.88;60.39;98092.41;6325927;27;20235;-35
2023/02/18 09:34:21;;;;;;;1.10;0.80;;;;;;;13.04;59.82;98096.09;6328825;27;20657;-35
2023/02/18 09:37:23;;;;;;;0.60;0.60;;;;;;;13.05;59.19;98088.88;6337302;27;20328;-35
2023/02/18 09:40:30;;;;;;;1.50;1.00;;;;;;;12.81;59.88;98090.97;6340325;27;20319;-35
2023/02/18 09:43:35;;;;;;;1.00;0.77;;;;;;;12.73;60.33;98100.22;6347828;27;20236;-35
2023/02/18 09:46:49;;;;;;;0.57;0.57;;;;;;;12.80;59.99;98089.34;6352673;27;20220;-35
2023/02/18 09:49:55;;;;;;;1.60;0.80;;;;;;;12.79;59.50;98066.34;6336967;27;21056;-35
2023/02/18 09:53:00;;;;;;;0.70;0.70;;;;;;;13.31;58.81;98106.09;6340550;28;20239;-35
2023/02/18 09:56:03;;;;;;;2.07;0.80;;;;;;;13.31;57.88;98106.09;6351636;28;20224;-36
2023/02/18 09:59:10;;;;;;;0.70;0.60;;;;;;;13.42;57.93;98092.59;6325841;28;20248;-35
2023/02/18 10:02:19;;;;;;;1.37;0.70;;;;;;;13.23;57.80;98031.63;6335793;28;20633;-35
2023/02/18 10:05:23;;;;;;;0.57;0.57;;;;;;;13.41;57.22;98079.47;6349882;28;20225;-35
2023/02/18 10:08:33;;;;;;;0.70;0.70;;;;;;;13.20;57.90;98070.38;6295490;28;20229;-35
2023/02/18 10:11:40;;;;;;;0.60;0.60;;;;;;;13.18;57.82;98069.78;6326001;28;20778;-35
2023/02/18 10:14:45;;;;;;;0.63;0.63;;;;;;;13.26;57.22;98081.97;6348072;28;20240;-36
2023/02/18 10:17:49;;;;;;;0.60;0.60;;;;;;;13.16;57.43;98083.44;6302257;28;20302;-35
2023/02/18 10:20:56;;;;;;;1.37;0.80;;;;;;;13.15;57.10;98067.59;6324704;28;21190;-35
2023/02/18 10:24:14;;;;;;;1.43;0.70;;;;;;;13.12;56.52;98076.16;6326081;28;20253;-35
2023/02/18 10:27:30;;;;;;;0.70;0.70;;;;;;;13.08;57.38;98083.84;6337751;28;20771;-35
2023/02/18 10:30:39;;;;;;;0.60;0.60;;;;;;;13.23;57.02;98064.53;6344460;28;20603;-35
2023/02/18 10:33:46;;;;;;;0.73;0.50;;;;;;;13.06;56.58;98034.34;6343090;28;20695;-35
2023/02/18 10:36:54;;;;;;;0.70;0.70;;;;;;;13.40;56.52;98061.81;6351175;28;20224;-35
2023/02/18 10:40:11;;;;;;;1.03;0.60;;;;;;;13.29;55.53;98076.09;6350786;27;20432;-36
2023/02/18 10:43:56;;;;;;;0.57;0.57;;;;;;;13.28;56.15;98064.59;6332907;27;20225;-36
2023/02/18 10:47:33;;;;;;;1.53;1.10;;;;;;;13.28;55.45;98074.50;6333810;27;20246;-36
2023/02/18 10:50:40;;;;;;;1.20;0.83;;;;;;;13.33;55.71;98074.56;6355731;27;20373;-35
2023/02/18 10:53:45;;;;;;;1.03;0.90;;;;;;;13.37;55.42;98040.88;6360838;27;20859;-35
2023/02/18 10:56:49;;;;;;;1.43;0.60;;;;;;;13.24;55.49;98034.03;6336899;27;20232;-35
2023/02/18 10:59:55;;;;;;;0.70;0.60;;;;;;;13.34;55.08;98054.75;6328702;28;20237;-35
2023/02/18 11:03:11;;;;;;;1.00;0.83;;;;;;;13.39;54.73;98039.56;6354421;27;20235;-35
2023/02/18 11:06:38;;;;;;;1.67;1.10;;;;;;;13.34;54.74;98028.00;6355423;27;20233;-35
2023/02/18 11:09:57;;;;;;;3.83;3.53;;;;;;;13.35;54.99;98037.66;6336356;27;20224;-37
2023/02/18 11:13:07;;;;;;;1.43;1.33;;;;;;;13.43;55.15;98045.22;6354887;27;20315;-37
2023/02/18 11:16:11;;;;;;;1.93;0.80;;;;;;;13.37;54.64;98031.00;6338084;27;20232;-35
2023/02/18 11:19:39;;;;;;;1.37;1.00;;;;;;;13.32;55.21;98035.47;6344844;27;20650;-35
2023/02/18 11:22:42;;;;;;;1.43;1.20;;;;;;;13.29;55.22;98030.63;6354555;27;20329;-36
2023/02/18 11:26:06;;;;;;;1.23;0.90;;;;;;;13.28;55.26;98027.13;6354556;27;20236;-35
2023/02/18 11:29:15;;;;;;;1.83;1.00;;;;;;;12.88;55.33;97974.75;6346742;27;20252;-35
2023/02/18 11:32:17;;;;;;;1.30;1.00;;;;;;;13.16;55.20;98008.53;6331465;27;20236;-35
2023/02/18 11:35:22;;;;;;;1.10;0.90;;;;;;;12.87;55.52;97956.28;6315892;27;20232;-35
2023/02/18 11:38:36;;;;;;;0.60;0.60;;;;;;;13.12;56.02;98009.28;6354753;27;20297;-35
2023/02/18 11:41:44;;;;;;;2.00;0.90;;;;;;;12.97;55.54;97991.19;6335896;27;20229;-35
2023/02/18 11:44:54;;;;;;;0.70;0.60;;;;;;;12.62;55.27;97930.88;6354981;27;20228;-35
2023/02/18 11:48:07;;;;;;;1.47;1.07;;;;;;;12.98;55.31;97989.31;6354905;27;20233;-35
2023/02/18 11:51:20;;;;;;;0.57;0.57;;;;;;;13.16;55.08;97978.28;6332391;27;20235;-35
2023/02/18 11:54:23;;;;;;;0.50;0.50;;;;;;;13.27;54.67;97971.22;6331901;27;20603;-35
2023/02/18 11:57:27;;;;;;;1.10;0.80;;;;;;;13.36;53.53;97969.69;6345160;27;20260;-35
2023/02/18 12:00:37;;;;;;;0.60;0.60;;;;;;;13.70;53.02;97948.06;6343351;27;20628;-36
2023/02/18 12:04:03;;;;;;;0.80;0.67;;;;;;;14.04;52.60;97956.59;6354855;27;20345;-35
2023/02/18 12:07:47;;;;;;;0.60;0.60;;;;;;;14.10;50.97;97937.66;6344246;27;20229;-36
2023/02/18 12:11:00;;;;;;;1.10;0.70;;;;;;;14.28;51.03;97938.28;6210973;28;20648;-36
2023/02/18 12:14:07;;;;;;;1.00;0.60;;;;;;;14.43;51.60;97908.88;6211099;28;20232;-36
2023/02/18 12:17:40;;;;;;;0.87;0.60;;;;;;;14.71;50.47;97918.44;6211057;28;20233;-36
2023/02/18 12:20:48;;;;;;;0.80;0.60;;;;;;;14.95;49.75;97900.00;6227077;28;20669;-36
2023/02/18 12:24:11;;;;;;;0.67;0.67;;;;;;;15.10;49.22;97897.34;6220325;28;20271;-36
2023/02/18 12:27:37;;;;;;;0.73;0.60;;;;;;;14.78;49.63;97900.22;6223714;28;20747;-36
2023/02/18 12:31:04;;;;;;;0.77;0.60;;;;;;;14.97;49.53;97876.38;6210374;28;20735;-36
2023/02/18 12:34:18;;;;;;;1.13;0.60;;;;;;;15.22;49.20;97878.31;6224641;28;20410;-37
2023/02/18 12:37:46;;;;;;;1.33;0.60;;;;;;;15.31;48.53;97862.47;6225375;28;20331;-37
2023/02/18 12:41:01;;;;;;;0.80;0.60;;;;;;;15.56;48.13;97865.16;6207045;28;20219;-38
2023/02/18 12:44:42;;;;;;;0.70;0.67;;;;;;;15.52;47.79;97856.06;6225169;28;20318;-37
2023/02/18 12:47:57;;;;;;;1.10;1.00;;;;;;;15.28;48.12;97838.88;6272870;28;20225;-38
2023/02/18 12:51:11;;;;;;;0.90;0.70;;;;;;;15.46;48.23;97847.19;6316202;28;20217;-38
2023/02/18 12:54:52;;;;;;;0.83;0.63;;;;;;;15.33;48.17;97844.25;6323989;28;20236;-38
2023/02/18 12:58:23;;;;;;;0.60;0.60;;;;;;;15.30;47.36;97848.25;6295460;28;20713;-37
2023/02/18 13:01:42;;;;;;;1.10;0.57;;;;;;;15.35;48.52;97818.72;6307087;28;20699;-38
2023/02/18 13:05:23;;;;;;;0.60;0.60;;;;;;;15.27;47.52;97830.03;6327263;28;20317;-38
2023/02/18 13:08:41;;;;;;;0.70;0.60;;;;;;;15.23;47.08;97820.91;6326348;28;20331;-38
2023/02/18 13:11:55;;;;;;;0.60;0.60;;;;;;;15.25;46.21;97839.41;6326529;28;20221;-38
2023/02/18 13:15:20;;;;;;;0.50;0.50;;;;;;;15.15;46.61;97811.50;6308764;28;20596;-37
2023/02/18 13:18:33;;;;;;;0.50;0.50;;;;;;;15.17;46.50;97805.84;6310173;28;20581;-38
2023/02/18 13:21:39;;;;;;;0.80;0.80;;;;;;;15.06;46.04;97820.34;6315556;28;20240;-37
2023/02/18 13:24:48;;;;;;;0.40;0.40;;;;;;;15.08;46.07;97786.81;6295441;28;20237;-37
2023/02/18 13:28:25;;;;;;;0.40;0.40;;;;;;;15.31;45.58;97781.97;6280778;28;20257;-37
2023/02/18 13:31:33;;;;;;;0.40;0.40;;;;;;;15.42;45.13;97795.13;6205887;28;20897;-38
2023/02/18 13:34:41;;;;;;;2.13;0.53;;;;;;;15.36;44.54;97787.31;6203812;28;20368;-37
2023/02/18 13:38:11;;;;;;;0.30;0.30;;;;;;;15.46;44.77;97760.47;6208940;28;20247;-38
2023/02/18 13:41:14;;;;;;;0.40;0.40;;;;;;;15.26;44.68;97737.13;6208514;28;21532;-37
2023/02/18 13:44:21;;;;;;;0.43;0.43;;;;;;;15.52;44.33;97748.66;6209859;28;21450;-37
2023/02/18 13:47:42;;;;;;;0.30;0.30;;;;;;;15.49;45.11;97709.72;6208347;28;20278;-38
2023/02/18 13:50:44;;;;;;;1.37;0.40;;;;;;;15.23;45.22;97705.50;6208883;28;20266;-38
2023/02/18 13:53:51;;;;;;;4.10;0.50;;;;;;;15.07;45.47;97674.38;6203537;28;20326;-38
2023/02/18 13:57:10;;;;;;;0.43;0.43;;;;;;;15.09;46.08;97715.16;6187630;28;20321;-38
2023/02/18 14:00:22;;;;;;;0.40;0.40;;;;;;;15.04;46.06;97696.41;6204993;28;20243;-36
2023/02/18 14:03:52;;;;;;;0.60;0.40;;;;;;;15.04;45.50;97710.59;6225445;28;20302;-36
2023/02/18 14:07:32;;;;;;;0.53;0.50;;;;;;;15.04;46.20;97696.41;6255608;28;20229;-36
2023/02/18 14:10:36;;;;;;;0.47;0.40;;;;;;;14.88;46.22;97687.56;6302079;28;20232;-36
2023/02/18 14:14:25;;;;;;;0.53;0.50;;;;;;;14.95;45.96;97685.41;6298123;28;20652;-36
2023/02/18 14:17:46;;;;;;;1.17;0.50;;;;;;;14.88;46.32;97658.84;6307714;28;20221;-36
2023/02/18 14:20:52;;;;;;;0.50;0.50;;;;;;;14.91;46.72;97685.13;6306579;28;20275;-36
2023/02/18 14:24:00;;;;;;;0.40;0.40;;;;;;;14.95;46.87;97675.47;6303155;28;20226;-36
2023/02/18 14:27:13;;;;;;;0.60;0.40;;;;;;;14.99;46.66;97669.56;6306931;28;20367;-36
2023/02/18 14:30:28;;;;;;;0.60;0.53;;;;;;;14.77;47.00;97665.28;6313084;28;20243;-35
2023/02/18 14:33:34;;;;;;;0.57;0.57;;;;;;;14.80;47.07;97694.25;6311999;28;20558;-36
2023/02/18 14:36:49;;;;;;;1.70;0.70;;;;;;;14.76;46.78;97670.91;6328296;27;20221;-36
2023/02/18 14:40:10;;;;;;;0.63;0.50;;;;;;;14.66;47.13;97679.75;6329161;27;20450;-39
2023/02/18 14:43:15;;;;;;;0.60;0.50;;;;;;;14.71;47.33;97659.13;6330420;27;20390;-39
2023/02/18 14:46:54;;;;;;;3.07;0.60;;;;;;;14.64;47.61;97661.28;6330653;27;20232;-39